createdAt,value
2018-02-21T00:00:04.523Z,26.57
2018-02-21T00:02:33.443Z,22.57
2018-02-21T00:05:01.551Z,24.87
2018-02-21T00:07:29.615Z,20.17
2018-02-21T00:09:57.800Z,24.70
2018-02-21T00:12:25.835Z,23.50
2018-02-21T00:14:53.883Z,24.87
2018-02-21T00:17:22.795Z,22.93
2018-02-21T00:19:50.840Z,24.50
2018-02-21T00:22:19.619Z,22.73
2018-02-21T00:24:47.999Z,23.77
2018-02-21T00:27:16.055Z,24.30
2018-02-21T00:29:44.098Z,25.20
2018-02-21T00:32:12.275Z,23.60
2018-02-21T00:34:40.379Z,21.87
2018-02-21T00:37:08.419Z,25.00
2018-02-21T00:39:36.590Z,25.93
2018-02-21T00:42:04.645Z,23.73
2018-02-21T00:44:32.760Z,24.87
2018-02-21T00:47:00.945Z,26.00
2018-02-21T00:49:28.995Z,23.87
2018-02-21T00:51:57.038Z,21.50
2018-02-21T00:54:25.431Z,24.40
2018-02-21T00:56:53.481Z,24.83
2018-02-21T00:59:22.263Z,22.57
2018-02-21T01:01:51.174Z,25.60
2018-02-21T01:04:19.286Z,24.57
2018-02-21T01:06:47.412Z,25.30
2018-02-21T01:09:16.348Z,24.40
2018-02-21T01:11:44.392Z,23.63
2018-02-21T01:14:12.500Z,26.47
2018-02-21T01:16:40.667Z,24.70
2018-02-21T01:19:08.711Z,23.13
2018-02-21T01:21:36.747Z,21.60
2018-02-21T01:24:05.036Z,24.33
2018-02-21T01:26:33.955Z,24.67
2018-02-21T01:29:01.995Z,24.90
2018-02-21T01:31:30.911Z,24.50
2018-02-21T01:33:59.032Z,24.93
2018-02-21T01:36:27.081Z,22.10
2018-02-21T01:38:55.263Z,23.43
2018-02-21T01:41:23.311Z,24.93
2018-02-21T01:43:51.418Z,22.90
2018-02-21T01:46:19.600Z,25.37
2018-02-21T01:48:47.653Z,23.07
2018-02-21T01:51:15.742Z,24.20
2018-02-21T01:53:44.040Z,27.40
2018-02-21T01:56:12.094Z,24.47
2018-02-21T01:58:40.148Z,23.60
2018-02-21T02:01:08.325Z,22.60
2018-02-21T02:03:36.363Z,24.30
2018-02-21T02:06:05.156Z,24.57
2018-02-21T02:08:34.232Z,22.87
2018-02-21T02:11:03.023Z,24.13
2018-02-21T02:13:31.802Z,26.50
2018-02-21T02:15:59.976Z,25.07
2018-02-21T02:18:28.023Z,25.80
2018-02-21T02:20:56.108Z,21.97
2018-02-21T02:23:24.403Z,25.57
2018-02-21T02:25:52.557Z,24.17
2018-02-21T02:28:20.735Z,23.53
2018-02-21T02:30:49.028Z,22.20
2018-02-21T02:33:17.323Z,22.10
2018-02-21T02:35:46.212Z,21.67
2018-02-21T02:38:26.700Z,22.03
2018-02-21T02:40:54.735Z,22.13
2018-02-21T02:43:22.884Z,21.80
2018-02-21T02:45:51.055Z,24.00
2018-02-21T02:48:19.108Z,22.70
2018-02-21T02:50:47.155Z,25.87
2018-02-21T02:53:16.072Z,24.57
2018-02-21T02:55:44.106Z,22.23
2018-02-21T02:58:12.903Z,24.67
2018-02-21T03:00:41.833Z,22.57
2018-02-21T03:03:09.878Z,22.77
2018-02-21T03:05:38.668Z,23.90
2018-02-21T03:08:12.060Z,22.37
2018-02-21T03:10:40.267Z,24.70
2018-02-21T03:13:08.319Z,24.90
2018-02-21T03:15:36.559Z,24.00
2018-02-21T03:18:04.603Z,24.47
2018-02-21T03:20:32.652Z,24.27
2018-02-21T03:23:01.228Z,22.70
2018-02-21T03:25:29.275Z,24.50
2018-02-21T03:27:58.067Z,21.80
2018-02-21T03:30:27.268Z,24.10
2018-02-21T03:32:56.459Z,21.80
2018-02-21T03:35:25.716Z,25.17
2018-02-21T03:37:54.284Z,21.43
2018-02-21T03:40:23.517Z,23.20
2018-02-21T03:42:51.950Z,21.50
2018-02-21T03:45:21.531Z,23.50
2018-02-21T03:47:50.488Z,22.80
2018-02-21T03:50:19.103Z,23.13
2018-02-21T03:52:47.280Z,22.67
2018-02-21T03:55:15.487Z,23.97
2018-02-21T03:57:44.047Z,22.03
2018-02-21T04:00:13.079Z,21.67
2018-02-21T04:02:41.119Z,24.87
2018-02-21T04:05:10.294Z,25.17
2018-02-21T04:07:38.867Z,22.00
2018-02-21T04:10:07.324Z,23.43
2018-02-21T04:12:36.136Z,23.07
2018-02-21T04:15:05.679Z,23.80
2018-02-21T04:17:36.059Z,23.73
2018-02-21T04:20:04.524Z,24.47
2018-02-21T04:22:33.091Z,23.83
2018-02-21T04:25:02.491Z,23.80
2018-02-21T04:27:31.659Z,21.93
2018-02-21T04:30:00.014Z,26.30
2018-02-21T04:32:29.142Z,22.63
2018-02-21T04:34:57.188Z,26.03
2018-02-21T04:37:25.959Z,21.60
2018-02-21T04:39:55.176Z,23.70
2018-02-21T04:42:23.611Z,22.57
2018-02-21T04:44:53.114Z,22.03
2018-02-21T04:47:22.459Z,23.80
2018-02-21T04:49:51.191Z,22.07
2018-02-21T04:52:20.515Z,23.53
2018-02-21T04:54:54.836Z,25.40
2018-02-21T05:22:54.945Z,20.33
2018-02-21T05:25:22.988Z,21.60
2018-02-21T05:27:51.775Z,21.53
2018-02-21T05:30:20.691Z,20.07
2018-02-21T05:32:49.045Z,19.00
2018-02-21T05:35:17.196Z,19.63
2018-02-21T05:37:45.374Z,19.50
2018-02-21T05:40:13.420Z,19.47
2018-02-21T05:42:41.471Z,19.73
2018-02-21T05:45:09.644Z,20.50
2018-02-21T05:47:37.684Z,19.50
2018-02-21T05:50:05.732Z,21.33
2018-02-21T05:52:33.898Z,20.80
2018-02-21T05:55:01.931Z,21.50
2018-02-21T05:57:29.975Z,19.83
2018-02-21T05:59:58.161Z,17.90
2018-02-21T06:02:26.936Z,18.30
2018-02-21T06:04:55.101Z,19.73
2018-02-21T06:07:23.272Z,20.03
2018-02-21T06:09:51.308Z,19.03
2018-02-21T06:12:19.363Z,17.80
2018-02-21T06:14:47.607Z,19.20
2018-02-21T06:17:15.651Z,18.07
2018-02-21T06:19:43.692Z,19.03
2018-02-21T06:22:11.863Z,18.43
2018-02-21T06:24:39.906Z,17.73
2018-02-21T06:27:07.955Z,19.80
2018-02-21T06:29:36.187Z,18.27
2018-02-21T06:32:04.259Z,19.47
2018-02-21T06:34:32.435Z,18.60
2018-02-21T06:37:00.603Z,20.30
2018-02-21T06:39:28.642Z,18.20
2018-02-21T06:41:56.911Z,17.27
2018-02-21T06:44:25.207Z,19.50
2018-02-21T06:46:53.999Z,17.80
2018-02-21T06:49:22.779Z,16.20
2018-02-21T06:51:50.946Z,16.47
2018-02-21T06:54:19.103Z,17.93
2018-02-21T06:56:47.153Z,16.60
2018-02-21T06:59:15.325Z,17.73
2018-02-21T07:01:43.375Z,16.70
2018-02-21T07:04:12.211Z,17.60
2018-02-21T07:06:40.543Z,18.27
2018-02-21T07:09:09.323Z,16.97
2018-02-21T07:11:38.099Z,18.23
2018-02-21T07:14:06.383Z,19.20
2018-02-21T07:16:35.163Z,17.00
2018-02-21T07:19:03.220Z,19.63
2018-02-21T07:21:31.388Z,17.53
2018-02-21T07:23:59.439Z,17.87
2018-02-21T07:26:27.627Z,17.50
2018-02-21T07:28:55.807Z,17.70
2018-02-21T07:31:23.859Z,16.37
2018-02-21T07:33:51.951Z,16.60
2018-02-21T07:36:20.260Z,15.83
2018-02-21T07:38:48.303Z,15.47
2018-02-21T07:41:16.356Z,14.80
2018-02-21T07:43:44.523Z,14.40
2018-02-21T07:46:12.560Z,14.53
2018-02-21T07:48:41.339Z,14.63
2018-02-21T07:51:09.516Z,16.00
2018-02-21T07:53:41.247Z,14.10
2018-02-21T07:56:09.289Z,15.30
2018-02-21T07:58:37.464Z,14.27
2018-02-21T08:01:05.496Z,15.57
2018-02-21T08:03:34.355Z,16.90
2018-02-21T08:06:02.619Z,15.00
2018-02-21T08:08:30.688Z,15.53
2018-02-21T08:10:58.734Z,16.83
2018-02-21T08:13:26.918Z,18.20
2018-02-21T08:15:54.980Z,16.80
2018-02-21T08:18:23.780Z,18.70
2018-02-21T08:20:51.969Z,20.57
2018-02-21T08:23:20.023Z,19.10
2018-02-21T08:25:48.073Z,17.83
2018-02-21T08:28:17.053Z,17.17
2018-02-21T08:30:45.964Z,18.77
2018-02-21T08:33:14.835Z,15.67
2018-02-21T08:35:43.012Z,15.97
2018-02-21T08:38:11.187Z,16.20
2018-02-21T08:40:39.242Z,16.10
2018-02-21T08:43:07.439Z,15.70
2018-02-21T08:45:35.482Z,14.30
2018-02-21T08:48:03.575Z,15.37
2018-02-21T08:50:31.747Z,15.80
2018-02-21T08:52:59.791Z,17.50
2018-02-21T08:55:27.831Z,18.40
2018-02-21T08:57:56.781Z,15.67
2018-02-21T09:00:24.848Z,16.57
2018-02-21T09:02:52.899Z,15.60
2018-02-21T09:05:21.084Z,16.80
2018-02-21T09:07:49.144Z,20.30
2018-02-21T09:10:17.183Z,16.47
2018-02-21T09:12:46.131Z,16.87
2018-02-21T09:15:14.168Z,16.70
2018-02-21T09:17:42.220Z,15.70
2018-02-21T09:20:11.135Z,16.63
2018-02-21T09:22:39.179Z,15.07
2018-02-21T09:25:07.971Z,18.30
2018-02-21T09:27:36.888Z,18.13
2018-02-21T09:30:04.969Z,18.57
2018-02-21T09:32:33.071Z,17.37
2018-02-21T09:35:01.235Z,18.37
2018-02-21T09:37:29.275Z,17.80
2018-02-21T09:39:57.563Z,15.50
2018-02-21T09:42:25.736Z,17.20
2018-02-21T09:44:53.799Z,18.13
2018-02-21T09:47:21.985Z,17.93
2018-02-21T09:49:50.195Z,15.93
2018-02-21T09:52:18.251Z,14.90
2018-02-21T09:54:46.339Z,15.13
2018-02-21T09:57:14.511Z,16.03
2018-02-21T09:59:42.567Z,16.10
2018-02-21T10:02:10.603Z,15.83
2018-02-21T10:04:39.572Z,16.43
2018-02-21T10:07:07.643Z,15.73
2018-02-21T10:09:35.850Z,15.47
2018-02-21T10:12:04.756Z,17.23
2018-02-21T10:14:32.863Z,15.20
2018-02-21T10:17:00.922Z,15.70
2018-02-21T10:19:29.096Z,15.97
2018-02-21T10:21:57.399Z,14.50
2018-02-21T10:24:25.465Z,15.93
2018-02-21T10:26:53.632Z,17.00
2018-02-21T10:29:21.685Z,17.93
2018-02-21T10:31:49.808Z,17.67
2018-02-21T10:34:18.082Z,18.07
2018-02-21T10:36:46.127Z,16.10
2018-02-21T10:39:14.163Z,16.80
2018-02-21T10:41:42.575Z,19.43
2018-02-21T10:44:10.667Z,17.57
2018-02-21T10:46:38.717Z,18.77
2018-02-21T10:49:06.889Z,18.83
2018-02-21T10:51:34.951Z,19.53
2018-02-21T10:54:03.256Z,21.57
2018-02-21T10:56:31.845Z,21.63
2018-02-21T10:58:59.895Z,22.87
2018-02-21T11:01:28.552Z,20.77
2018-02-21T11:03:57.519Z,19.30
2018-02-21T11:06:25.564Z,22.70
2018-02-21T11:08:53.619Z,21.73
2018-02-21T11:11:21.816Z,20.50
2018-02-21T11:13:49.886Z,21.90
2018-02-21T11:16:17.937Z,23.80
2018-02-21T11:18:46.121Z,21.90
2018-02-21T11:21:14.171Z,22.20
2018-02-21T11:23:42.653Z,23.60
2018-02-21T11:26:10.838Z,22.13
2018-02-21T11:28:38.879Z,27.50
2018-02-21T11:31:07.827Z,21.57
2018-02-21T11:33:36.044Z,22.47
2018-02-21T11:36:04.831Z,23.63
2018-02-21T11:38:33.612Z,21.47
2018-02-21T11:41:01.787Z,24.40
2018-02-21T11:43:30.050Z,22.67
2018-02-21T11:45:58.094Z,21.57
2018-02-21T11:48:27.131Z,22.43
2018-02-21T11:50:55.230Z,23.20
2018-02-21T11:53:24.159Z,23.50
2018-02-21T11:55:52.339Z,22.80
2018-02-21T11:58:20.380Z,23.40
2018-02-21T12:00:48.428Z,21.57
2018-02-21T12:03:17.344Z,21.77
2018-02-21T12:05:45.455Z,21.00
2018-02-21T12:08:13.514Z,22.90
2018-02-21T12:10:41.700Z,21.20
2018-02-21T12:13:09.780Z,25.03
2018-02-21T12:15:38.773Z,21.67
2018-02-21T12:18:06.949Z,21.83
2018-02-21T12:20:35.159Z,23.17
2018-02-21T12:23:03.947Z,23.77
2018-02-21T12:25:32.867Z,24.17
2018-02-21T12:28:00.911Z,22.90
2018-02-21T12:30:29.871Z,22.63
2018-02-21T12:33:00.024Z,20.23
2018-02-21T12:35:28.844Z,21.10
2018-02-21T12:37:56.887Z,20.80
2018-02-21T12:40:31.387Z,20.47
2018-02-21T12:42:59.433Z,19.60
2018-02-21T12:45:27.623Z,20.90
2018-02-21T12:47:56.826Z,20.60
2018-02-21T12:50:24.997Z,20.10
2018-02-21T12:52:53.053Z,19.20
2018-02-21T12:55:21.336Z,19.17
2018-02-21T12:57:49.386Z,22.00
2018-02-21T13:00:17.519Z,18.63
2018-02-21T13:02:45.708Z,18.83
2018-02-21T13:05:15.655Z,18.57
2018-02-21T13:07:43.716Z,20.27
2018-02-21T13:10:13.487Z,19.67
2018-02-21T13:12:42.418Z,19.20
2018-02-21T13:15:11.212Z,19.00
2018-02-21T13:17:41.412Z,19.70
2018-02-21T13:20:09.523Z,18.57
2018-02-21T13:22:37.568Z,16.50
2018-02-21T13:25:06.666Z,20.33
2018-02-21T13:27:36.703Z,17.67
2018-02-21T13:30:04.808Z,18.80
2018-02-21T13:32:33.944Z,18.60
2018-02-21T13:35:02.885Z,17.90
2018-02-21T13:37:30.943Z,19.10
2018-02-21T13:39:59.115Z,16.93
2018-02-21T13:42:27.155Z,17.90
2018-02-21T13:44:56.211Z,20.33
2018-02-21T13:47:24.532Z,20.10
2018-02-21T13:49:52.587Z,17.20
2018-02-21T13:52:20.667Z,21.10
2018-02-21T13:54:50.499Z,19.50
2018-02-21T13:57:20.060Z,19.67
2018-02-21T13:59:48.104Z,20.10
2018-02-21T14:02:17.206Z,18.43
2018-02-21T14:04:45.399Z,18.43
2018-02-21T14:07:13.599Z,21.43
2018-02-21T14:09:41.947Z,20.67
2018-02-21T14:12:10.057Z,19.60
2018-02-21T14:14:38.307Z,19.33
2018-02-21T14:17:06.592Z,20.00
2018-02-21T14:19:34.727Z,20.63
2018-02-21T14:22:02.807Z,18.23
2018-02-21T14:24:31.978Z,16.70
2018-02-21T14:27:00.965Z,19.77
2018-02-21T14:29:29.355Z,19.33
2018-02-21T14:31:58.267Z,18.83
2018-02-21T14:34:26.375Z,19.27
2018-02-21T14:36:54.414Z,19.27
2018-02-21T14:39:22.604Z,18.27
2018-02-21T14:41:50.647Z,19.40
2018-02-21T14:44:19.491Z,18.87
2018-02-21T14:46:47.668Z,20.60
2018-02-21T14:49:15.853Z,20.63
2018-02-21T14:51:43.912Z,18.87
2018-02-21T14:54:12.986Z,18.90
2018-02-21T14:56:41.088Z,20.67
2018-02-21T14:59:09.955Z,22.00
2018-02-21T15:01:38.139Z,20.00
2018-02-21T15:04:06.265Z,20.87
2018-02-21T15:06:37.539Z,20.63
2018-02-21T15:09:09.219Z,18.50
2018-02-21T15:11:37.869Z,18.97
2018-02-21T15:14:08.385Z,18.70
2018-02-21T15:16:38.237Z,19.80
2018-02-21T15:19:10.040Z,19.13
2018-02-21T15:21:38.952Z,18.67
2018-02-21T15:24:07.173Z,21.00
2018-02-21T15:26:35.347Z,23.00
2018-02-21T15:29:04.255Z,21.43
2018-02-21T15:31:34.814Z,18.20
2018-02-21T15:34:03.199Z,21.00
2018-02-21T15:36:31.259Z,19.57
2018-02-21T15:39:07.387Z,19.87
2018-02-21T15:41:35.610Z,21.07
2018-02-21T15:44:03.872Z,20.83
2018-02-21T15:46:35.255Z,20.37
2018-02-21T15:49:03.491Z,19.83
2018-02-21T15:51:32.595Z,21.17
2018-02-21T15:54:00.775Z,21.00
2018-02-21T15:56:28.835Z,19.80
2018-02-21T15:58:56.899Z,20.23
2018-02-21T16:01:25.084Z,19.90
2018-02-21T16:03:53.163Z,19.33
2018-02-21T16:06:22.138Z,18.90
2018-02-21T16:08:50.314Z,21.57
2018-02-21T16:11:18.352Z,20.20
2018-02-21T16:13:47.219Z,20.23
2018-02-21T16:16:18.458Z,19.77
2018-02-21T16:18:51.203Z,21.70
2018-02-21T16:21:19.275Z,22.60
2018-02-21T16:23:47.322Z,22.90
2018-02-21T16:26:15.431Z,22.10
2018-02-21T16:28:43.599Z,21.60
2018-02-21T16:31:11.644Z,22.80
2018-02-21T16:33:48.888Z,22.43
2018-02-21T16:36:20.419Z,21.57
2018-02-21T16:38:48.502Z,23.07
2018-02-21T16:41:16.545Z,21.50
2018-02-21T16:43:44.648Z,21.90
2018-02-21T16:46:13.004Z,22.20
2018-02-21T16:48:41.168Z,24.40
2018-02-21T16:51:09.580Z,23.53
2018-02-21T16:53:38.714Z,22.63
2018-02-21T16:56:08.415Z,22.33
2018-02-21T16:58:36.455Z,21.87
2018-02-21T17:01:04.643Z,21.40
2018-02-21T17:16:21.327Z,20.93
2018-02-21T17:18:49.420Z,23.40
2018-02-21T17:21:17.491Z,22.00
2018-02-21T17:23:45.695Z,21.70
2018-02-21T17:26:14.661Z,21.87
2018-02-21T17:28:42.719Z,24.23
2018-02-21T17:31:10.898Z,22.50
2018-02-21T17:33:39.058Z,22.13
2018-02-21T17:36:07.278Z,23.50
2018-02-21T17:38:35.652Z,23.60
2018-02-21T17:41:09.628Z,23.43
2018-02-21T17:43:37.978Z,23.27
2018-02-21T17:46:06.262Z,24.90
2018-02-21T17:48:34.473Z,22.80
2018-02-21T17:51:02.890Z,22.33
2018-02-21T17:53:31.195Z,22.77
2018-02-21T17:55:59.402Z,22.13
2018-02-21T17:58:27.756Z,23.07
2018-02-21T18:00:56.192Z,24.30
2018-02-21T18:03:24.377Z,23.30
2018-02-21T18:05:53.535Z,22.13
2018-02-21T18:08:21.772Z,25.77
2018-02-21T18:10:49.978Z,21.20
2018-02-21T18:13:18.395Z,21.20
2018-02-21T18:15:46.719Z,23.33
2018-02-21T18:18:15.654Z,24.03
2018-02-21T18:20:44.040Z,21.37
2018-02-21T18:23:12.322Z,24.00
2018-02-21T18:25:40.562Z,21.63
2018-02-21T18:28:08.906Z,20.83
2018-02-21T18:30:37.171Z,22.27
2018-02-21T18:33:06.071Z,23.27
2018-02-21T18:35:35.083Z,23.97
2018-02-21T18:38:03.143Z,23.40
2018-02-21T18:40:31.955Z,23.80
2018-02-21T18:43:00.161Z,22.70
2018-02-21T18:45:28.500Z,24.10
2018-02-21T18:47:56.551Z,23.23
2018-02-21T18:50:25.498Z,23.70
2018-02-21T18:52:53.563Z,23.60
2018-02-21T18:55:21.683Z,25.33
2018-02-21T18:57:50.159Z,23.53
2018-02-21T19:00:18.234Z,25.13
2018-02-21T19:02:46.303Z,26.37
2018-02-21T19:05:14.494Z,24.13
2018-02-21T19:07:43.291Z,22.87
2018-02-21T19:10:12.113Z,22.53
2018-02-21T19:12:40.323Z,22.63
2018-02-21T19:15:08.419Z,27.23
2018-02-21T19:17:36.483Z,23.00
2018-02-21T19:20:04.687Z,25.30
2018-02-21T19:22:33.490Z,22.37
2018-02-21T19:25:01.552Z,24.10
2018-02-21T19:27:30.507Z,23.90
2018-02-21T19:29:58.571Z,23.87
2018-02-21T19:32:26.623Z,24.50
2018-02-21T19:34:54.814Z,23.33
2018-02-21T19:37:22.871Z,26.80
2018-02-21T19:39:50.944Z,24.40
2018-02-21T19:42:19.136Z,24.70
2018-02-21T19:44:47.236Z,25.43
2018-02-21T19:47:15.316Z,24.73
2018-02-21T19:49:44.248Z,22.10
2018-02-21T19:52:12.306Z,24.50
2018-02-21T19:54:40.447Z,24.00
2018-02-21T19:57:08.655Z,22.57
2018-02-21T19:59:36.845Z,24.17
2018-02-21T20:02:04.948Z,26.13
2018-02-21T20:04:33.179Z,23.97
2018-02-21T20:07:01.239Z,23.43
2018-02-21T20:09:30.064Z,25.80
2018-02-21T20:11:58.268Z,25.17
2018-02-21T20:14:26.460Z,24.60
2018-02-21T20:16:54.539Z,23.70
2018-02-21T20:19:23.488Z,26.30
2018-02-21T20:21:51.559Z,25.73
2018-02-21T20:24:19.732Z,27.70
2018-02-21T20:26:47.931Z,27.20
2018-02-21T20:29:15.995Z,25.47
2018-02-21T20:31:44.058Z,26.13
2018-02-21T20:34:12.292Z,25.60
2018-02-21T20:36:41.087Z,27.13
2018-02-21T20:39:09.915Z,29.30
2018-02-21T20:41:38.108Z,26.93
2018-02-21T20:44:06.191Z,26.80
2018-02-21T20:46:34.251Z,27.90
2018-02-21T20:49:02.448Z,26.37
2018-02-21T20:51:30.518Z,26.17
2018-02-21T20:53:58.622Z,27.20
2018-02-21T20:56:27.603Z,24.40
2018-02-21T20:58:56.390Z,26.50
2018-02-21T21:01:25.326Z,25.90
2018-02-21T21:03:53.599Z,27.10
2018-02-21T21:06:21.659Z,24.87
2018-02-21T21:08:49.777Z,24.80
2018-02-21T21:11:17.975Z,26.20
2018-02-21T21:13:46.153Z,25.47
2018-02-21T21:16:14.955Z,26.90
2018-02-21T21:18:43.887Z,27.30
2018-02-21T21:21:11.959Z,26.23
2018-02-21T21:23:40.032Z,27.60
2018-02-21T21:26:08.235Z,26.50
2018-02-21T21:28:36.299Z,25.03
2018-02-21T21:31:04.393Z,27.00
2018-02-21T21:33:32.707Z,24.60
2018-02-21T21:36:00.766Z,25.10
2018-02-21T21:38:29.572Z,25.67
2018-02-21T21:40:57.774Z,27.80
2018-02-21T21:43:25.847Z,26.43
2018-02-21T21:45:53.920Z,25.40
2018-02-21T21:48:22.111Z,27.80
2018-02-21T21:50:50.213Z,27.77
2018-02-21T21:53:19.014Z,26.90
2018-02-21T21:55:47.947Z,27.17
2018-02-21T21:58:16.019Z,27.90
2018-02-21T22:00:44.083Z,27.07
2018-02-21T22:03:12.411Z,28.37
2018-02-21T22:05:40.482Z,26.47
2018-02-21T22:08:08.603Z,26.47
2018-02-21T22:10:36.795Z,28.60
2018-02-21T22:13:04.860Z,27.10
2018-02-21T22:15:32.919Z,26.90
2018-02-21T22:18:01.136Z,25.43
2018-02-21T22:20:29.214Z,25.33
2018-02-21T22:22:57.335Z,25.90
2018-02-21T22:25:26.267Z,24.07
2018-02-21T22:27:54.331Z,24.40
2018-02-21T22:30:22.395Z,25.00
2018-02-21T22:32:50.587Z,28.80
2018-02-21T22:35:18.652Z,27.10
2018-02-21T22:37:46.718Z,25.70
2018-02-21T22:40:14.911Z,25.90
2018-02-21T22:42:42.982Z,23.63
2018-02-21T22:45:11.056Z,26.13
2018-02-21T22:47:39.251Z,25.20
2018-02-21T22:50:07.324Z,24.80
2018-02-21T22:52:35.391Z,23.60
2018-02-21T22:55:03.587Z,24.23
2018-02-21T22:57:31.659Z,25.23
2018-02-21T22:59:59.723Z,24.57
2018-02-21T23:02:27.917Z,24.27
2018-02-21T23:04:56.861Z,24.87
2018-02-21T23:07:24.954Z,23.87
2018-02-21T23:09:53.158Z,23.23
2018-02-21T23:12:21.967Z,25.30
2018-02-21T23:14:50.019Z,24.53
2018-02-21T23:17:18.964Z,23.47
2018-02-21T23:19:47.015Z,22.37
2018-02-21T23:22:15.084Z,22.80
2018-02-21T23:24:43.360Z,22.10
2018-02-21T23:27:11.407Z,25.20
2018-02-21T23:29:40.219Z,24.23
2018-02-21T23:32:08.422Z,23.20
2018-02-21T23:34:36.530Z,23.30
2018-02-21T23:37:04.591Z,21.70
2018-02-21T23:39:32.787Z,24.90
2018-02-21T23:42:00.855Z,23.80
2018-02-21T23:44:29.043Z,25.07
2018-02-21T23:46:57.978Z,23.43
2018-02-21T23:49:26.035Z,21.47
2018-02-21T23:51:54.115Z,23.77
2018-02-21T23:54:22.379Z,24.20
2018-02-21T23:56:51.187Z,23.60
2018-02-21T23:59:19.319Z,24.17
